createdAt,value
2022-08-26T00:01:54.623Z,12.10
2022-08-26T00:04:25.471Z,11.60
2022-08-26T00:06:55.557Z,11.20
2022-08-26T00:09:25.387Z,10.60
2022-08-26T00:11:54.257Z,10.80
2022-08-26T00:14:27.035Z,11.20
2022-08-26T00:16:57.817Z,10.90
2022-08-26T00:19:25.509Z,12.30
2022-08-26T00:21:53.179Z,11.10
2022-08-26T00:24:21.668Z,11.60
2022-08-26T00:26:50.483Z,13.10
2022-08-26T00:29:19.803Z,11.00
2022-08-26T00:31:49.549Z,11.30
2022-08-26T00:34:19.422Z,10.20
2022-08-26T00:36:51.818Z,10.80
2022-08-26T00:39:20.969Z,10.90
2022-08-26T00:41:48.704Z,10.90
2022-08-26T00:44:17.532Z,10.40
2022-08-26T00:46:51.044Z,11.20
2022-08-26T00:49:25.880Z,10.70
2022-08-26T00:51:55.532Z,10.30
2022-08-26T00:54:27.421Z,10.40
2022-08-26T00:57:16.307Z,11.10
2022-08-26T00:59:52.925Z,13.30
2022-08-26T01:02:21.736Z,10.60
2022-08-26T01:04:57.066Z,9.80
2022-08-26T01:07:30.295Z,9.50
2022-08-26T01:10:01.807Z,9.70
2022-08-26T01:12:33.809Z,9.50
2022-08-26T01:15:03.055Z,10.20
2022-08-26T01:17:33.777Z,9.50
2022-08-26T01:20:21.681Z,10.60
2022-08-26T01:22:52.368Z,9.50
2022-08-26T01:25:21.588Z,9.10
2022-08-26T01:27:51.392Z,7.80
2022-08-26T01:30:19.988Z,8.80
2022-08-26T01:32:50.032Z,9.10
2022-08-26T01:35:18.786Z,9.40
2022-08-26T01:37:49.872Z,9.00
2022-08-26T01:40:25.561Z,9.80
2022-08-26T01:42:54.681Z,9.00
2022-08-26T01:45:29.866Z,9.40
2022-08-26T01:48:01.789Z,8.20
2022-08-26T01:50:33.326Z,8.90
2022-08-26T01:53:06.067Z,8.30
2022-08-26T01:58:07.894Z,10.20
2022-08-26T02:00:36.509Z,9.30
2022-08-26T02:03:22.987Z,8.30
2022-08-26T02:05:55.178Z,8.90
2022-08-26T02:08:36.910Z,9.30
2022-08-26T02:11:05.328Z,9.50
2022-08-26T02:13:37.372Z,8.80
2022-08-26T02:16:06.043Z,8.30
2022-08-26T02:18:38.811Z,9.30
2022-08-26T02:21:08.357Z,8.00
2022-08-26T02:23:36.003Z,8.50
2022-08-26T02:26:09.965Z,9.40
2022-08-26T02:28:46.494Z,9.40
2022-08-26T02:31:14.548Z,9.20
2022-08-26T02:33:43.033Z,9.40
2022-08-26T02:36:12.163Z,9.60
2022-08-26T02:38:41.262Z,9.80
2022-08-26T02:41:11.201Z,9.70
2022-08-26T02:43:38.809Z,10.90
2022-08-26T02:46:06.552Z,10.50
2022-08-26T02:48:34.533Z,10.20
2022-08-26T02:51:03.788Z,9.80
2022-08-26T02:53:35.467Z,9.80
2022-08-26T02:56:07.154Z,10.70
2022-08-26T02:58:35.329Z,10.60
2022-08-26T03:01:04.978Z,10.40
2022-08-26T03:03:33.560Z,10.60
2022-08-26T03:06:01.480Z,10.40
2022-08-26T03:08:29.166Z,8.50
2022-08-26T03:10:56.863Z,8.90
2022-08-26T03:13:24.444Z,8.90
2022-08-26T03:15:52.133Z,8.20
2022-08-26T03:18:20.496Z,9.20
2022-08-26T03:20:48.416Z,9.40
2022-08-26T03:23:16.537Z,8.60
2022-08-26T03:25:53.025Z,9.00
2022-08-26T03:28:20.665Z,8.80
2022-08-26T03:30:49.064Z,8.30
2022-08-26T03:33:16.930Z,7.90
2022-08-26T03:35:47.149Z,8.60
2022-08-26T03:38:15.309Z,8.30
2022-08-26T03:40:43.598Z,7.60
2022-08-26T03:43:12.381Z,9.60
2022-08-26T03:45:40.970Z,8.30
2022-08-26T03:48:11.328Z,7.80
2022-08-26T03:50:39.784Z,7.10
2022-08-26T03:53:12.838Z,7.30
2022-08-26T03:55:42.170Z,8.10
2022-08-26T03:58:10.961Z,6.60
2022-08-26T04:00:39.359Z,8.00
2022-08-26T04:03:09.978Z,7.60
2022-08-26T04:05:38.146Z,7.10
2022-08-26T04:08:06.920Z,7.90
2022-08-26T04:10:38.301Z,7.60
2022-08-26T04:13:06.413Z,7.10
2022-08-26T04:15:34.295Z,7.20
2022-08-26T04:18:01.895Z,6.50
2022-08-26T04:20:29.590Z,6.50
2022-08-26T04:22:57.244Z,7.70
2022-08-26T04:25:24.896Z,8.00
2022-08-26T04:27:52.559Z,6.90
2022-08-26T04:30:20.408Z,6.60
2022-08-26T04:32:49.434Z,7.10
2022-08-26T04:35:17.227Z,7.30
2022-08-26T04:37:44.834Z,7.70
2022-08-26T04:40:12.537Z,7.40
2022-08-26T04:42:40.280Z,7.20
2022-08-26T04:45:10.183Z,7.20
2022-08-26T04:47:38.436Z,7.20
2022-08-26T04:50:07.691Z,7.50
2022-08-26T04:52:36.505Z,7.10
2022-08-26T04:55:08.617Z,7.80
2022-08-26T04:57:36.724Z,5.90
2022-08-26T05:00:11.993Z,7.00
2022-08-26T05:02:40.780Z,6.30
2022-08-26T05:05:08.833Z,9.20
2022-08-26T05:07:36.497Z,7.50
2022-08-26T05:10:04.692Z,6.80
2022-08-26T05:12:36.766Z,7.90
2022-08-26T05:15:06.774Z,7.00
2022-08-26T05:17:34.453Z,8.00
2022-08-26T05:20:02.218Z,7.80
2022-08-26T05:22:29.910Z,7.20
2022-08-26T05:24:57.591Z,7.00
2022-08-26T05:27:25.247Z,6.70
2022-08-26T05:29:57.162Z,6.30
2022-08-26T05:32:24.856Z,5.90
2022-08-26T05:34:56.971Z,5.80
2022-08-26T05:37:26.326Z,6.70
2022-08-26T05:39:53.988Z,6.20
2022-08-26T05:42:21.932Z,6.60
2022-08-26T05:44:53.995Z,7.00
2022-08-26T05:47:26.147Z,6.90
2022-08-26T05:49:54.538Z,7.10
2022-08-26T05:52:22.180Z,6.70
2022-08-26T05:54:53.544Z,7.20
2022-08-26T05:57:23.157Z,6.60
2022-08-26T05:59:52.221Z,7.30
2022-08-26T06:02:20.491Z,5.90
2022-08-26T06:04:48.213Z,7.40
2022-08-26T06:07:16.877Z,6.80
2022-08-26T06:09:46.256Z,7.60
2022-08-26T06:12:14.111Z,6.70
2022-08-26T06:14:43.398Z,5.90
2022-08-26T06:17:12.256Z,6.70
2022-08-26T06:19:41.342Z,6.90
2022-08-26T06:22:29.137Z,6.40
2022-08-26T06:25:12.788Z,6.90
2022-08-26T06:27:40.411Z,7.70
2022-08-26T06:30:09.853Z,8.00
2022-08-26T06:32:37.555Z,16.00
2022-08-26T06:35:06.229Z,7.60
2022-08-26T06:37:40.308Z,8.10
2022-08-26T06:40:09.670Z,7.50
2022-08-26T06:42:39.602Z,7.70
2022-08-26T06:45:08.997Z,6.80
2022-08-26T06:47:37.003Z,9.80
2022-08-26T06:50:05.349Z,8.10
2022-08-26T06:52:33.067Z,6.90
2022-08-26T06:55:02.986Z,6.80
2022-08-26T06:57:32.762Z,7.10
2022-08-26T07:00:12.913Z,6.70
2022-08-26T07:02:41.835Z,7.00
2022-08-26T07:05:15.077Z,7.40
2022-08-26T07:07:42.749Z,7.80
2022-08-26T07:10:10.743Z,7.70
2022-08-26T07:12:38.813Z,7.90
2022-08-26T07:15:06.838Z,8.30
2022-08-26T07:17:35.951Z,8.50
2022-08-26T07:20:07.731Z,6.90
2022-08-26T07:22:37.056Z,7.20
2022-08-26T07:25:07.969Z,7.20
2022-08-26T07:27:37.919Z,9.50
2022-08-26T07:30:07.768Z,8.50
2022-08-26T07:32:37.408Z,7.50
2022-08-26T07:35:06.301Z,8.00
2022-08-26T07:37:39.079Z,7.80
2022-08-26T07:42:37.176Z,7.60
2022-08-26T07:45:05.857Z,7.60
2022-08-26T07:47:33.520Z,6.60
2022-08-26T07:50:01.297Z,7.20
2022-08-26T07:52:30.695Z,7.80
2022-08-26T07:55:01.324Z,8.50
2022-08-26T07:57:30.425Z,6.90
2022-08-26T07:59:59.522Z,7.90
2022-08-26T08:02:29.101Z,7.80
2022-08-26T08:04:58.349Z,7.70
2022-08-26T08:07:44.177Z,7.80
2022-08-26T08:10:19.222Z,7.30
2022-08-26T08:12:49.960Z,9.20
2022-08-26T08:15:20.094Z,12.50
2022-08-26T08:17:50.533Z,8.60
2022-08-26T08:20:22.053Z,8.70
2022-08-26T08:22:51.970Z,7.60
2022-08-26T08:25:21.685Z,8.10
2022-08-26T08:27:49.671Z,9.00
2022-08-26T08:30:20.940Z,8.80
2022-08-26T08:32:52.278Z,8.20
2022-08-26T08:35:23.886Z,8.70
2022-08-26T08:37:54.651Z,8.70
2022-08-26T08:40:26.009Z,8.80
2022-08-26T08:43:13.418Z,9.40
2022-08-26T08:45:53.624Z,8.50
2022-08-26T08:48:27.758Z,8.80
2022-08-26T08:50:58.839Z,10.00
2022-08-26T08:53:41.542Z,8.60
2022-08-26T08:56:46.180Z,9.40
2022-08-26T08:59:35.190Z,8.70
2022-08-26T09:02:55.819Z,8.80
2022-08-26T09:05:45.448Z,8.20
2022-08-26T09:08:27.357Z,8.80
2022-08-26T09:11:01.851Z,8.20
2022-08-26T09:13:31.799Z,8.50
2022-08-26T09:16:31.973Z,9.40
2022-08-26T09:19:31.570Z,9.40
2022-08-26T09:22:02.167Z,9.20
2022-08-26T09:24:41.764Z,7.60
2022-08-26T09:27:40.377Z,8.80
2022-08-26T09:30:30.290Z,9.00
2022-08-26T09:33:14.710Z,8.80
2022-08-26T09:35:48.826Z,10.10
2022-08-26T09:38:27.885Z,10.60
2022-08-26T09:41:02.752Z,10.00
2022-08-26T09:43:33.055Z,9.00
2022-08-26T09:46:24.530Z,8.70
2022-08-26T09:48:53.276Z,8.30
2022-08-26T09:51:23.149Z,9.00
2022-08-26T09:53:54.831Z,8.60
2022-08-26T09:56:25.798Z,8.10
2022-08-26T10:01:51.233Z,8.20
2022-08-26T10:04:28.033Z,10.30
2022-08-26T10:07:00.869Z,9.30
2022-08-26T10:09:36.069Z,10.10
2022-08-26T10:12:13.224Z,10.10
2022-08-26T10:14:50.177Z,8.70
2022-08-26T10:17:26.559Z,8.60
2022-08-26T10:20:03.759Z,8.80
2022-08-26T10:22:46.332Z,9.00
2022-08-26T10:25:20.164Z,9.80
2022-08-26T10:28:06.752Z,9.10
2022-08-26T10:30:42.958Z,8.90
2022-08-26T10:33:18.374Z,8.40
2022-08-26T10:35:58.707Z,8.60
2022-08-26T10:38:34.172Z,8.50
2022-08-26T10:41:11.268Z,8.80
2022-08-26T10:43:51.513Z,9.10
2022-08-26T10:46:27.462Z,7.70
2022-08-26T10:49:06.500Z,8.10
2022-08-26T10:51:42.068Z,8.40
2022-08-26T10:54:26.010Z,8.30
2022-08-26T10:57:12.700Z,8.30
2022-08-26T11:00:24.599Z,8.80
2022-08-26T11:06:25.598Z,7.90
2022-08-26T11:08:59.670Z,8.40
2022-08-26T11:11:45.469Z,7.70
2022-08-26T11:14:28.652Z,7.70
2022-08-26T11:16:58.876Z,8.20
2022-08-26T11:20:01.568Z,7.70
2022-08-26T11:22:37.961Z,8.10
2022-08-26T11:25:20.141Z,7.90
2022-08-26T11:27:47.693Z,6.70
2022-08-26T11:30:18.560Z,6.80
2022-08-26T11:32:58.205Z,7.80
2022-08-26T11:35:46.164Z,7.90
2022-08-26T11:38:27.165Z,6.50
2022-08-26T11:40:59.822Z,6.80
2022-08-26T11:43:32.681Z,23.00
2022-08-26T11:46:10.674Z,6.30
2022-08-26T11:48:43.433Z,6.90
2022-08-26T11:54:15.817Z,5.60
2022-08-26T11:56:47.732Z,6.00
2022-08-26T11:59:23.907Z,6.20
2022-08-26T12:01:54.477Z,6.00
2022-08-26T12:04:28.600Z,5.80
2022-08-26T12:06:58.521Z,5.70
2022-08-26T12:09:34.288Z,5.70
2022-08-26T12:12:22.003Z,5.40
2022-08-26T12:15:10.459Z,5.00
2022-08-26T12:17:39.471Z,5.60
2022-08-26T12:20:17.942Z,4.70
2022-08-26T12:22:48.209Z,5.20
2022-08-26T12:25:23.946Z,5.10
2022-08-26T12:27:54.000Z,4.20
2022-08-26T12:30:24.495Z,4.90
2022-08-26T12:33:22.108Z,5.20
2022-08-26T12:35:56.302Z,6.00
2022-08-26T12:38:26.670Z,5.90
2022-08-26T12:40:56.849Z,5.50
2022-08-26T12:43:43.131Z,5.00
2022-08-26T12:46:18.482Z,5.40
2022-08-26T12:48:49.592Z,4.80
2022-08-26T12:51:27.023Z,4.40
2022-08-26T12:53:55.390Z,4.10
2022-08-26T12:56:33.908Z,4.90
2022-08-26T12:59:11.163Z,4.40
2022-08-26T13:01:44.949Z,4.60
2022-08-26T13:04:46.074Z,4.30
2022-08-26T13:07:20.470Z,4.60
2022-08-26T13:09:50.420Z,3.60
2022-08-26T13:12:37.157Z,4.30
2022-08-26T13:15:06.931Z,4.60
2022-08-26T13:17:35.915Z,4.50
2022-08-26T13:20:04.537Z,4.40
2022-08-26T13:22:33.782Z,4.60
2022-08-26T13:25:01.747Z,4.40
2022-08-26T13:27:29.561Z,4.10
2022-08-26T13:29:58.925Z,4.10
2022-08-26T13:32:27.818Z,4.40
2022-08-26T13:34:57.780Z,4.20
2022-08-26T13:37:34.155Z,3.90
2022-08-26T13:40:07.613Z,3.90
2022-08-26T13:42:35.556Z,4.30
2022-08-26T13:45:03.781Z,4.20
2022-08-26T13:47:31.438Z,3.80
2022-08-26T13:49:59.124Z,4.30
2022-08-26T13:52:30.393Z,4.00
2022-08-26T13:55:00.504Z,3.70
2022-08-26T13:57:30.276Z,7.70
2022-08-26T13:59:59.334Z,3.70
2022-08-26T14:02:28.217Z,4.30
2022-08-26T14:04:56.404Z,4.00
2022-08-26T14:07:24.417Z,4.20
2022-08-26T14:09:52.614Z,3.50
2022-08-26T14:12:20.355Z,3.70
2022-08-26T14:14:48.137Z,3.70
2022-08-26T14:17:20.885Z,3.20
2022-08-26T14:19:50.269Z,3.70
2022-08-26T14:22:21.021Z,3.90
2022-08-26T14:24:49.165Z,3.80
2022-08-26T14:27:16.949Z,3.40
2022-08-26T14:29:44.579Z,4.00
2022-08-26T14:32:21.034Z,4.40
2022-08-26T14:34:50.163Z,3.80
2022-08-26T14:37:19.536Z,3.20
2022-08-26T14:39:47.767Z,4.00
2022-08-26T14:42:20.496Z,4.80
2022-08-26T14:44:55.350Z,3.50
2022-08-26T14:47:23.021Z,3.80
2022-08-26T14:49:50.739Z,4.30
2022-08-26T14:52:18.381Z,4.00
2022-08-26T14:54:46.006Z,3.70
2022-08-26T14:57:14.970Z,4.30
2022-08-26T14:59:50.202Z,3.90
2022-08-26T15:02:33.362Z,3.80
2022-08-26T15:05:02.740Z,3.50
2022-08-26T15:07:31.016Z,4.60
2022-08-26T15:09:59.241Z,4.00
2022-08-26T15:12:27.686Z,3.80
2022-08-26T15:14:55.516Z,3.40
2022-08-26T15:17:23.382Z,3.40
2022-08-26T15:19:51.588Z,3.60
2022-08-26T15:22:19.278Z,3.60
2022-08-26T15:24:47.007Z,3.90
2022-08-26T15:27:19.639Z,3.90
2022-08-26T15:29:47.617Z,3.90
2022-08-26T15:32:15.663Z,4.10
2022-08-26T15:34:43.812Z,4.00
2022-08-26T15:37:11.913Z,4.50
2022-08-26T15:39:39.870Z,5.70
2022-08-26T15:42:07.573Z,4.30
2022-08-26T15:44:36.605Z,4.00
2022-08-26T15:47:04.432Z,4.20
2022-08-26T15:49:32.857Z,4.40
2022-08-26T15:52:02.762Z,4.60
2022-08-26T15:54:33.597Z,4.50
2022-08-26T15:57:02.483Z,4.30
2022-08-26T15:59:33.514Z,4.70
2022-08-26T16:02:01.782Z,4.80
2022-08-26T16:04:29.625Z,5.40
2022-08-26T16:06:57.380Z,5.40
2022-08-26T16:09:27.056Z,5.30
2022-08-26T16:11:58.423Z,4.70
2022-08-26T16:14:26.989Z,4.80
2022-08-26T16:16:54.799Z,9.70
2022-08-26T16:19:22.589Z,5.10
2022-08-26T16:21:51.401Z,5.30
2022-08-26T16:24:24.789Z,5.10
2022-08-26T16:26:54.589Z,5.30
2022-08-26T16:29:22.248Z,4.70
2022-08-26T16:31:53.111Z,5.30
2022-08-26T16:34:21.777Z,5.00
2022-08-26T16:36:49.553Z,4.90
2022-08-26T16:39:17.274Z,4.60
2022-08-26T16:41:44.957Z,4.70
2022-08-26T16:44:12.691Z,5.00
2022-08-26T16:46:41.207Z,5.10
2022-08-26T16:49:08.996Z,6.50
2022-08-26T16:51:38.057Z,6.40
2022-08-26T16:54:08.532Z,8.10
2022-08-26T16:56:37.170Z,7.50
2022-08-26T16:59:07.014Z,5.70
2022-08-26T17:01:34.931Z,5.10
2022-08-26T17:04:02.848Z,5.40
2022-08-26T17:06:30.791Z,11.30
2022-08-26T17:08:58.912Z,28.30
2022-08-26T17:11:26.613Z,15.70
2022-08-26T17:13:54.270Z,11.80
2022-08-26T17:16:26.418Z,6.30
2022-08-26T17:18:57.190Z,5.90
2022-08-26T17:21:26.431Z,5.20
2022-08-26T17:23:55.063Z,6.10
2022-08-26T17:26:22.894Z,5.70
2022-08-26T17:28:51.369Z,8.70
2022-08-26T17:31:20.276Z,7.10
2022-08-26T17:33:53.926Z,6.20
2022-08-26T17:36:27.794Z,5.50
2022-08-26T17:38:57.690Z,6.10
2022-08-26T17:41:26.388Z,5.90
2022-08-26T17:43:54.094Z,5.60
2022-08-26T17:46:21.962Z,5.40
2022-08-26T17:48:49.751Z,7.60
2022-08-26T17:51:19.462Z,6.60
2022-08-26T17:53:48.623Z,8.80
2022-08-26T17:56:19.821Z,7.80
2022-08-26T17:58:47.945Z,7.80
2022-08-26T18:01:21.105Z,9.80
2022-08-26T18:03:49.595Z,6.70
2022-08-26T18:06:17.401Z,6.30
2022-08-26T18:08:45.113Z,6.00
2022-08-26T18:11:17.128Z,6.10
2022-08-26T18:13:46.962Z,6.90
2022-08-26T18:16:17.579Z,7.60
2022-08-26T18:18:47.254Z,7.20
2022-08-26T18:21:17.891Z,6.60
2022-08-26T18:23:46.833Z,6.90
2022-08-26T18:26:33.002Z,6.60
2022-08-26T18:29:01.739Z,6.40
2022-08-26T18:31:30.293Z,6.10
2022-08-26T18:34:02.311Z,9.00
2022-08-26T18:36:33.178Z,8.30
2022-08-26T18:39:02.039Z,7.50
2022-08-26T18:41:32.667Z,8.20
2022-08-26T18:44:00.658Z,6.90
2022-08-26T18:46:28.499Z,7.50
2022-08-26T18:48:57.184Z,6.70
2022-08-26T18:51:29.564Z,7.90
2022-08-26T18:53:58.875Z,7.30
2022-08-26T18:56:27.722Z,6.90
2022-08-26T18:58:55.403Z,7.40
2022-08-26T19:01:27.219Z,7.00
2022-08-26T19:04:00.167Z,7.10
2022-08-26T19:06:32.699Z,6.50
2022-08-26T19:09:01.220Z,5.80
2022-08-26T19:11:31.793Z,6.60
2022-08-26T19:14:06.467Z,7.10
2022-08-26T19:16:35.542Z,7.20
2022-08-26T19:19:04.274Z,6.30
2022-08-26T19:21:33.768Z,5.80
2022-08-26T19:24:04.107Z,6.50
2022-08-26T19:26:32.130Z,5.80
2022-08-26T19:29:00.358Z,5.70
2022-08-26T19:31:28.332Z,5.90
2022-08-26T19:33:57.925Z,6.00
2022-08-26T19:36:27.427Z,5.90
2022-08-26T19:38:56.637Z,5.30
2022-08-26T19:41:37.162Z,5.10
2022-08-26T19:44:33.394Z,5.30
2022-08-26T19:47:03.431Z,5.20
2022-08-26T19:49:32.068Z,5.00
2022-08-26T19:51:59.752Z,5.30
2022-08-26T19:54:28.168Z,6.00
2022-08-26T19:56:55.841Z,5.60
2022-08-26T19:59:23.595Z,5.80
2022-08-26T20:01:55.195Z,6.50
2022-08-26T20:04:32.942Z,5.30
2022-08-26T20:07:02.276Z,5.60
2022-08-26T20:09:31.361Z,5.30
2022-08-26T20:11:59.398Z,5.10
2022-08-26T20:14:27.881Z,4.40
2022-08-26T20:16:55.709Z,5.20
2022-08-26T20:19:39.497Z,5.00
2022-08-26T20:22:08.039Z,5.70
2022-08-26T20:24:37.975Z,5.80
2022-08-26T20:27:07.931Z,5.40
2022-08-26T20:29:37.191Z,5.60
2022-08-26T20:32:07.870Z,5.70
2022-08-26T20:34:36.694Z,5.00
2022-08-26T20:37:05.360Z,5.50
2022-08-26T20:39:33.062Z,6.00
2022-08-26T20:42:00.727Z,5.60
2022-08-26T20:44:28.537Z,5.50
2022-08-26T20:46:56.608Z,5.60
2022-08-26T20:49:24.209Z,5.30
2022-08-26T20:51:52.987Z,6.30
2022-08-26T20:54:27.571Z,5.70
2022-08-26T20:56:58.018Z,5.60
2022-08-26T20:59:26.797Z,5.50
2022-08-26T21:01:54.842Z,5.70
2022-08-26T21:04:26.036Z,5.90
2022-08-26T21:06:54.638Z,5.60
2022-08-26T21:09:24.192Z,6.30
2022-08-26T21:11:52.871Z,6.00
2022-08-26T21:14:23.215Z,5.90
2022-08-26T21:16:53.623Z,6.20
2022-08-26T21:19:21.361Z,6.40
2022-08-26T21:21:50.079Z,6.00
2022-08-26T21:24:18.076Z,6.00
2022-08-26T21:26:47.135Z,5.70
2022-08-26T21:29:15.179Z,5.30
2022-08-26T21:45:52.825Z,5.90
2022-08-26T21:48:22.882Z,5.80
2022-08-26T21:50:57.380Z,6.80
2022-08-26T21:53:25.195Z,6.20
2022-08-26T21:55:52.842Z,6.90
2022-08-26T21:58:20.455Z,6.80
2022-08-26T22:00:50.659Z,6.90
2022-08-26T22:03:18.444Z,6.30
2022-08-26T22:05:51.057Z,6.20
2022-08-26T22:08:20.417Z,6.40
2022-08-26T22:10:51.953Z,6.60
2022-08-26T22:13:26.054Z,6.80
2022-08-26T22:15:54.041Z,7.20
2022-08-26T22:18:21.646Z,7.50
2022-08-26T22:20:49.313Z,6.20
2022-08-26T22:23:17.066Z,6.20
2022-08-26T22:25:45.219Z,6.70
2022-08-26T22:28:12.984Z,6.50
2022-08-26T22:30:42.834Z,6.00
2022-08-26T22:33:11.150Z,6.40
2022-08-26T22:35:50.697Z,6.30
2022-08-26T22:38:19.808Z,6.60
2022-08-26T22:40:56.357Z,6.20
2022-08-26T22:43:25.755Z,7.30
2022-08-26T22:45:55.421Z,7.20
2022-08-26T22:48:26.410Z,6.30
2022-08-26T22:50:59.684Z,7.40
2022-08-26T22:53:28.067Z,6.80
2022-08-26T22:55:55.898Z,6.30
2022-08-26T22:58:30.454Z,7.30
2022-08-26T23:00:59.450Z,7.00
2022-08-26T23:03:27.924Z,6.80
2022-08-26T23:05:55.948Z,7.00
2022-08-26T23:08:24.911Z,7.90
2022-08-26T23:10:52.676Z,7.20
2022-08-26T23:13:20.499Z,6.90
2022-08-26T23:15:48.179Z,7.10
2022-08-26T23:18:15.993Z,7.20
2022-08-26T23:20:43.701Z,7.20
2022-08-26T23:23:12.920Z,6.80
2022-08-26T23:25:41.083Z,7.10
2022-08-26T23:28:09.345Z,7.00
2022-08-26T23:30:37.161Z,7.10
2022-08-26T23:33:04.851Z,7.80
2022-08-26T23:35:32.546Z,7.90
2022-08-26T23:38:00.720Z,7.80
2022-08-26T23:40:32.356Z,7.30
2022-08-26T23:43:05.513Z,7.10
2022-08-26T23:45:34.798Z,8.10
2022-08-26T23:48:03.375Z,8.30
2022-08-26T23:50:47.629Z,8.10
2022-08-26T23:53:20.018Z,7.90
2022-08-26T23:55:49.834Z,7.60
2022-08-26T23:58:19.207Z,7.90
